createdAt,value
2018-04-27T00:02:12.761Z,8.70
2018-04-27T00:04:44.011Z,8.70
2018-04-27T00:07:15.250Z,8.70
2018-04-27T00:09:46.490Z,8.70
2018-04-27T00:12:17.654Z,8.70
2018-04-27T00:14:48.856Z,8.90
2018-04-27T00:17:20.785Z,8.90
2018-04-27T00:19:52.058Z,8.90
2018-04-27T00:22:24.019Z,9.00
2018-04-27T00:24:55.987Z,9.10
2018-04-27T00:27:27.958Z,9.20
2018-04-27T00:29:59.199Z,9.20
2018-04-27T00:32:30.406Z,9.10
2018-04-27T00:35:02.341Z,9.10
2018-04-27T00:37:33.787Z,9.10
2018-04-27T00:40:04.961Z,9.10
2018-04-27T00:42:36.182Z,9.20
2018-04-27T00:45:07.346Z,9.30
2018-04-27T00:47:38.595Z,9.30
2018-04-27T00:50:09.878Z,9.30
2018-04-27T00:52:53.417Z,9.30
2018-04-27T00:55:24.636Z,9.30
2018-04-27T00:57:56.534Z,9.20
2018-04-27T01:00:27.763Z,9.20
2018-04-27T01:02:58.950Z,9.20
2018-04-27T01:05:30.158Z,9.30
2018-04-27T01:08:01.389Z,9.20
2018-04-27T01:10:32.985Z,9.10
2018-04-27T01:13:04.163Z,9.00
2018-04-27T01:15:35.382Z,8.90
2018-04-27T01:18:06.566Z,9.00
2018-04-27T01:20:38.568Z,9.10
2018-04-27T01:23:09.815Z,9.10
2018-04-27T01:25:41.010Z,9.10
2018-04-27T01:28:13.043Z,9.10
2018-04-27T01:30:44.201Z,9.00
2018-04-27T01:33:15.402Z,9.00
2018-04-27T01:35:46.565Z,9.10
2018-04-27T01:38:17.789Z,9.20
2018-04-27T01:40:49.033Z,9.00
2018-04-27T01:43:20.214Z,9.10
2018-04-27T01:45:51.404Z,9.00
2018-04-27T01:48:22.859Z,9.00
2018-04-27T01:50:54.050Z,9.00
2018-04-27T01:53:25.322Z,8.80
2018-04-27T01:55:57.221Z,8.80
2018-04-27T01:58:28.411Z,8.70
2018-04-27T02:01:00.342Z,9.00
2018-04-27T02:03:31.548Z,9.00
2018-04-27T02:06:02.801Z,9.00
2018-04-27T02:08:34.102Z,9.00
2018-04-27T02:11:05.279Z,8.90
2018-04-27T02:13:36.671Z,8.70
2018-04-27T02:16:08.100Z,8.60
2018-04-27T02:18:39.289Z,8.70
2018-04-27T02:21:11.223Z,8.60
2018-04-27T02:23:42.394Z,8.60
2018-04-27T02:26:14.330Z,8.40
2018-04-27T02:28:45.842Z,8.40
2018-04-27T02:31:17.023Z,8.30
2018-04-27T02:33:48.197Z,8.40
2018-04-27T02:36:20.097Z,8.50
2018-04-27T02:38:51.301Z,8.40
2018-04-27T02:41:23.234Z,8.30
2018-04-27T02:43:54.573Z,8.30
2018-04-27T02:46:25.759Z,8.20
2018-04-27T02:48:57.931Z,8.10
2018-04-27T02:51:29.119Z,8.10
2018-04-27T02:54:00.360Z,8.00
2018-04-27T02:56:31.561Z,7.90
2018-04-27T02:59:02.809Z,8.00
2018-04-27T03:01:33.979Z,7.90
2018-04-27T03:04:05.402Z,7.90
2018-04-27T03:06:36.572Z,7.90
2018-04-27T03:09:07.993Z,7.90
2018-04-27T03:11:39.166Z,7.90
2018-04-27T03:14:10.378Z,7.80
2018-04-27T03:16:41.585Z,8.00
2018-04-27T03:19:12.818Z,8.00
2018-04-27T03:21:44.001Z,7.90
2018-04-27T03:24:15.363Z,7.90
2018-04-27T03:26:46.567Z,7.90
2018-04-27T03:29:17.933Z,7.80
2018-04-27T03:31:49.126Z,7.80
2018-04-27T03:34:20.419Z,8.00
2018-04-27T03:36:51.670Z,7.90
2018-04-27T03:39:22.878Z,7.90
2018-04-27T03:41:54.145Z,8.00
2018-04-27T03:44:25.335Z,8.00
2018-04-27T03:46:56.696Z,8.00
2018-04-27T03:49:27.898Z,8.00
2018-04-27T03:51:59.175Z,8.00
2018-04-27T03:54:30.330Z,7.90
2018-04-27T03:57:01.536Z,8.00
2018-04-27T03:59:45.230Z,8.10
2018-04-27T04:02:28.813Z,8.20
2018-04-27T04:05:26.004Z,8.00
2018-04-27T04:07:57.165Z,7.80
2018-04-27T04:10:28.654Z,8.00
2018-04-27T04:12:59.823Z,8.20
2018-04-27T04:15:31.462Z,8.30
2018-04-27T04:18:02.660Z,8.30
2018-04-27T04:20:33.888Z,8.20
2018-04-27T04:23:05.845Z,8.10
2018-04-27T04:25:37.063Z,8.10
2018-04-27T04:28:08.226Z,8.30
2018-04-27T04:30:39.466Z,8.40
2018-04-27T04:33:10.751Z,8.20
2018-04-27T04:35:42.656Z,8.10
2018-04-27T04:38:14.018Z,8.10
2018-04-27T04:40:45.254Z,8.20
2018-04-27T04:43:16.565Z,8.30
2018-04-27T04:45:47.774Z,8.40
2018-04-27T04:48:18.982Z,8.40
2018-04-27T04:50:50.452Z,8.40
2018-04-27T04:53:22.453Z,8.30
2018-04-27T04:55:54.451Z,8.20
2018-04-27T04:58:25.673Z,8.20
2018-04-27T05:00:56.877Z,8.20
2018-04-27T05:03:28.111Z,8.10
2018-04-27T05:05:59.310Z,8.20
2018-04-27T05:08:30.525Z,8.30
2018-04-27T05:11:02.544Z,8.40
2018-04-27T05:13:33.699Z,8.40
2018-04-27T05:16:05.811Z,8.50
2018-04-27T05:18:53.793Z,8.50
2018-04-27T05:21:25.144Z,8.50
2018-04-27T05:23:57.114Z,8.70
2018-04-27T05:26:28.372Z,8.70
2018-04-27T05:29:00.432Z,8.60
2018-04-27T05:31:32.741Z,8.70
2018-04-27T05:34:03.908Z,8.60
2018-04-27T05:36:35.133Z,8.60
2018-04-27T05:39:06.398Z,8.70
2018-04-27T05:41:37.611Z,8.80
2018-04-27T05:44:08.860Z,9.00
2018-04-27T05:46:40.127Z,9.00
2018-04-27T05:49:11.695Z,9.00
2018-04-27T05:51:42.926Z,9.10
2018-04-27T05:54:14.205Z,9.20
2018-04-27T05:56:45.451Z,9.30
2018-04-27T05:59:17.411Z,9.40
2018-04-27T06:01:49.414Z,9.50
2018-04-27T06:04:20.610Z,9.50
2018-04-27T06:06:51.815Z,9.70
2018-04-27T06:09:23.093Z,9.60
2018-04-27T06:11:54.311Z,9.50
2018-04-27T06:14:25.473Z,9.60
2018-04-27T06:16:57.478Z,9.80
2018-04-27T06:19:29.666Z,9.90
2018-04-27T06:22:00.897Z,9.90
2018-04-27T06:24:32.147Z,10.20
2018-04-27T06:27:03.392Z,10.30
2018-04-27T06:29:34.732Z,10.30
2018-04-27T06:32:05.989Z,10.30
2018-04-27T06:34:37.249Z,10.20
2018-04-27T06:37:08.427Z,10.20
2018-04-27T06:39:39.664Z,10.20
2018-04-27T06:42:11.162Z,10.30
2018-04-27T06:44:43.347Z,10.40
2018-04-27T06:47:14.836Z,10.30
2018-04-27T06:49:46.337Z,10.50
2018-04-27T06:52:17.651Z,10.50
2018-04-27T06:54:49.059Z,10.60
2018-04-27T06:57:21.305Z,10.50
2018-04-27T06:59:52.508Z,10.80
2018-04-27T07:02:25.079Z,11.10
2018-04-27T07:04:56.265Z,11.10
2018-04-27T07:07:27.484Z,11.30
2018-04-27T07:09:59.437Z,11.20
2018-04-27T07:12:30.778Z,11.20
2018-04-27T07:15:02.002Z,11.10
2018-04-27T07:17:33.202Z,11.10
2018-04-27T07:20:04.394Z,11.10
2018-04-27T07:22:36.749Z,11.10
2018-04-27T07:25:07.960Z,11.10
2018-04-27T07:27:39.167Z,11.30
2018-04-27T07:30:10.481Z,11.40
2018-04-27T07:32:41.721Z,11.40
2018-04-27T07:35:12.942Z,11.50
2018-04-27T07:37:44.313Z,11.60
2018-04-27T07:40:15.517Z,11.60
2018-04-27T07:42:46.782Z,11.60
2018-04-27T07:45:17.995Z,11.70
2018-04-27T07:47:49.972Z,11.90
2018-04-27T07:50:21.174Z,11.90
2018-04-27T07:52:52.914Z,11.80
2018-04-27T07:55:24.399Z,11.80
2018-04-27T07:57:56.213Z,11.90
2018-04-27T08:00:27.721Z,12.00
2018-04-27T08:02:59.149Z,12.10
2018-04-27T08:05:31.143Z,12.20
2018-04-27T08:08:02.393Z,12.10
2018-04-27T08:10:33.780Z,12.10
2018-04-27T08:13:05.219Z,12.30
2018-04-27T08:15:39.371Z,12.40
2018-04-27T08:18:11.366Z,12.40
2018-04-27T08:20:42.622Z,12.30
2018-04-27T08:23:13.968Z,12.40
2018-04-27T08:25:45.196Z,12.50
2018-04-27T08:28:16.446Z,12.50
2018-04-27T08:30:47.637Z,12.50
2018-04-27T08:33:19.175Z,12.50
2018-04-27T08:35:51.489Z,12.50
2018-04-27T08:38:23.847Z,12.70
2018-04-27T08:40:55.801Z,12.80
2018-04-27T08:43:28.129Z,12.90
2018-04-27T08:45:59.353Z,12.90
2018-04-27T08:48:30.566Z,13.00
2018-04-27T08:51:02.522Z,13.10
2018-04-27T08:53:34.641Z,13.10
2018-04-27T08:56:05.893Z,13.00
2018-04-27T08:58:37.190Z,13.00
2018-04-27T09:01:08.435Z,12.90
2018-04-27T09:03:39.678Z,12.90
2018-04-27T09:06:11.654Z,13.20
2018-04-27T09:08:42.885Z,13.20
2018-04-27T09:11:14.154Z,13.40
2018-04-27T09:13:45.690Z,13.60
2018-04-27T09:16:16.953Z,13.80
2018-04-27T09:18:48.179Z,13.90
2018-04-27T09:21:19.402Z,13.80
2018-04-27T09:23:51.638Z,13.70
2018-04-27T09:26:22.869Z,13.70
2018-04-27T09:28:54.076Z,13.60
2018-04-27T09:31:26.387Z,13.90
2018-04-27T09:33:57.705Z,13.90
2018-04-27T09:36:29.043Z,14.00
2018-04-27T09:39:00.295Z,14.10
2018-04-27T09:41:31.546Z,14.40
2018-04-27T09:44:02.835Z,14.10
2018-04-27T09:46:34.056Z,13.80
2018-04-27T09:49:05.275Z,13.90
2018-04-27T09:51:36.505Z,13.90
2018-04-27T09:54:08.506Z,14.00
2018-04-27T09:56:40.019Z,14.00
2018-04-27T09:59:11.279Z,14.40
2018-04-27T10:01:42.590Z,14.90
2018-04-27T10:04:13.792Z,14.80
2018-04-27T10:06:45.804Z,14.60
2018-04-27T10:09:18.107Z,14.70
2018-04-27T10:11:49.310Z,14.60
2018-04-27T10:14:20.641Z,15.00
2018-04-27T10:16:52.164Z,15.50
2018-04-27T10:19:23.398Z,15.70
2018-04-27T10:21:54.676Z,15.60
2018-04-27T10:24:25.843Z,15.40
2018-04-27T10:26:57.104Z,15.40
2018-04-27T10:29:29.342Z,15.50
2018-04-27T10:32:00.617Z,15.50
2018-04-27T10:34:32.704Z,15.10
2018-04-27T10:37:03.959Z,14.80
2018-04-27T10:39:35.366Z,14.70
2018-04-27T10:42:06.690Z,14.80
2018-04-27T10:44:38.068Z,14.90
2018-04-27T10:47:09.385Z,14.90
2018-04-27T10:49:41.346Z,15.30
2018-04-27T10:52:12.600Z,15.30
2018-04-27T10:54:44.833Z,15.20
2018-04-27T10:57:16.059Z,15.20
2018-04-27T10:59:47.428Z,15.20
2018-04-27T11:02:18.662Z,15.30
2018-04-27T11:04:49.978Z,15.30
2018-04-27T11:07:21.166Z,15.30
2018-04-27T11:09:52.434Z,15.50
2018-04-27T11:12:24.434Z,15.30
2018-04-27T11:14:55.727Z,15.30
2018-04-27T11:17:27.091Z,15.30
2018-04-27T11:19:59.097Z,15.50
2018-04-27T11:22:30.286Z,15.50
2018-04-27T11:25:01.518Z,15.70
2018-04-27T11:27:32.813Z,16.00
2018-04-27T11:30:04.064Z,16.10
2018-04-27T11:32:35.264Z,15.90
2018-04-27T11:35:06.560Z,15.70
2018-04-27T11:37:37.760Z,15.50
2018-04-27T11:40:09.027Z,15.30
2018-04-27T11:42:40.279Z,15.20
2018-04-27T11:45:11.868Z,15.40
2018-04-27T11:47:43.148Z,15.40
2018-04-27T11:50:14.362Z,15.40
2018-04-27T11:52:45.662Z,15.50
2018-04-27T11:55:16.954Z,15.80
2018-04-27T11:57:48.494Z,16.20
2018-04-27T12:00:20.642Z,16.20
2018-04-27T12:02:51.905Z,16.30
2018-04-27T12:05:23.187Z,16.70
2018-04-27T12:07:54.455Z,16.40
2018-04-27T12:10:26.441Z,16.20
2018-04-27T12:12:57.677Z,16.20
2018-04-27T12:15:28.968Z,15.90
2018-04-27T12:18:00.173Z,15.90
2018-04-27T12:20:31.381Z,16.00
2018-04-27T12:23:02.626Z,16.20
2018-04-27T12:25:33.869Z,16.30
2018-04-27T12:28:06.162Z,16.50
2018-04-27T12:30:41.401Z,16.50
2018-04-27T12:33:12.842Z,16.30
2018-04-27T12:35:44.312Z,16.40
2018-04-27T12:38:15.655Z,16.70
2018-04-27T12:40:46.954Z,16.50
2018-04-27T12:43:18.345Z,16.30
2018-04-27T12:45:49.649Z,16.30
2018-04-27T12:48:20.902Z,16.30
2018-04-27T12:50:52.633Z,16.50
2018-04-27T12:53:24.207Z,16.20
2018-04-27T12:55:55.527Z,16.10
2018-04-27T12:58:26.765Z,16.10
2018-04-27T13:00:57.963Z,16.30
2018-04-27T13:03:29.232Z,16.30
2018-04-27T13:06:00.433Z,16.50
2018-04-27T13:08:31.649Z,16.60
2018-04-27T13:11:02.834Z,16.70
2018-04-27T13:13:34.076Z,16.80
2018-04-27T13:16:06.105Z,16.80
2018-04-27T13:18:37.586Z,16.70
2018-04-27T13:21:09.095Z,16.70
2018-04-27T13:23:40.417Z,16.60
2018-04-27T13:26:11.707Z,16.60
2018-04-27T13:28:42.930Z,16.60
2018-04-27T13:31:14.484Z,16.30
2018-04-27T13:33:45.673Z,16.40
2018-04-27T13:36:16.991Z,16.60
2018-04-27T13:38:48.169Z,16.60
2018-04-27T13:41:20.134Z,16.40
2018-04-27T13:43:51.407Z,16.40
2018-04-27T13:46:22.905Z,16.30
2018-04-27T13:48:54.859Z,16.70
2018-04-27T13:51:26.132Z,16.70
2018-04-27T13:53:58.124Z,16.80
2018-04-27T13:56:29.387Z,16.80
2018-04-27T13:59:00.648Z,17.10
2018-04-27T14:01:31.919Z,17.20
2018-04-27T14:04:03.880Z,17.10
2018-04-27T14:06:35.894Z,17.10
2018-04-27T14:09:07.133Z,17.10
2018-04-27T14:11:38.357Z,17.20
2018-04-27T14:14:09.591Z,17.20
2018-04-27T14:16:40.998Z,17.10
2018-04-27T14:19:12.223Z,17.00
2018-04-27T14:21:43.499Z,16.70
2018-04-27T14:24:14.826Z,16.70
2018-04-27T14:26:46.184Z,16.90
2018-04-27T14:29:17.390Z,16.90
2018-04-27T14:31:48.578Z,17.10
2018-04-27T14:34:19.945Z,17.10
2018-04-27T14:36:51.247Z,17.20
2018-04-27T14:39:22.584Z,17.40
2018-04-27T14:42:08.815Z,17.50
2018-04-27T14:44:40.106Z,17.60
2018-04-27T14:47:11.399Z,17.50
2018-04-27T14:49:43.883Z,17.40
2018-04-27T14:52:15.117Z,17.30
2018-04-27T14:54:46.431Z,17.50
2018-04-27T14:57:17.758Z,17.40
2018-04-27T14:59:49.051Z,17.40
2018-04-27T15:02:20.300Z,17.40
2018-04-27T15:04:51.595Z,17.40
2018-04-27T15:07:23.172Z,17.50
2018-04-27T15:09:54.553Z,17.50
2018-04-27T15:12:25.916Z,17.50
2018-04-27T15:14:57.357Z,17.50
2018-04-27T15:17:28.884Z,17.60
2018-04-27T15:20:00.503Z,17.50
2018-04-27T15:22:31.725Z,17.60
2018-04-27T15:25:02.986Z,17.60
2018-04-27T15:27:34.204Z,17.40
2018-04-27T15:30:06.129Z,17.10
2018-04-27T15:32:37.364Z,17.10
2018-04-27T15:35:08.851Z,17.00
2018-04-27T15:37:40.844Z,17.10
2018-04-27T15:40:12.052Z,17.00
2018-04-27T15:42:43.325Z,17.10
2018-04-27T15:45:14.558Z,16.90
2018-04-27T15:47:46.485Z,16.70
2018-04-27T15:50:17.732Z,16.70
2018-04-27T15:52:48.987Z,16.90
2018-04-27T15:55:20.666Z,17.00
2018-04-27T15:57:51.979Z,17.20
2018-04-27T16:00:24.999Z,17.30
2018-04-27T16:02:56.474Z,17.40
2018-04-27T16:05:27.715Z,17.40
2018-04-27T16:07:59.058Z,17.50
2018-04-27T16:10:30.568Z,17.40
2018-04-27T16:13:10.257Z,17.50
2018-04-27T16:15:41.560Z,17.50
2018-04-27T16:18:13.766Z,17.60
2018-04-27T16:20:45.052Z,17.60
2018-04-27T16:23:16.319Z,17.50
2018-04-27T16:25:47.557Z,17.50
2018-04-27T16:28:19.252Z,17.60
2018-04-27T16:30:50.640Z,17.50
2018-04-27T16:33:22.734Z,17.40
2018-04-27T16:35:53.960Z,17.30
2018-04-27T16:38:25.307Z,17.20
2018-04-27T16:40:56.755Z,17.30
2018-04-27T16:43:28.052Z,17.20
2018-04-27T16:45:59.353Z,17.20
2018-04-27T16:48:30.729Z,17.20
2018-04-27T16:51:02.139Z,17.30
2018-04-27T16:53:33.362Z,17.30
2018-04-27T16:56:04.666Z,17.20
2018-04-27T16:58:35.957Z,17.10
2018-04-27T17:01:07.382Z,17.00
2018-04-27T17:03:38.706Z,17.00
2018-04-27T17:06:09.925Z,16.90
2018-04-27T17:08:41.208Z,16.80
2018-04-27T17:11:12.683Z,16.80
2018-04-27T17:13:44.006Z,16.70
2018-04-27T17:16:15.223Z,16.60
2018-04-27T17:18:47.442Z,16.50
2018-04-27T17:21:18.665Z,16.50
2018-04-27T17:23:49.915Z,16.50
2018-04-27T17:26:21.285Z,16.50
2018-04-27T17:28:52.712Z,16.40
2018-04-27T17:31:23.924Z,16.50
2018-04-27T17:33:55.907Z,16.50
2018-04-27T17:36:27.113Z,16.50
2018-04-27T17:38:59.201Z,16.50
2018-04-27T17:41:30.491Z,16.50
2018-04-27T17:44:01.762Z,16.40
2018-04-27T17:46:32.976Z,16.30
2018-04-27T17:49:04.213Z,16.20
2018-04-27T17:51:35.537Z,16.10
2018-04-27T17:54:06.839Z,16.00
2018-04-27T17:56:38.084Z,15.90
2018-04-27T17:59:09.435Z,15.80
2018-04-27T18:01:40.690Z,15.90
2018-04-27T18:04:11.928Z,15.80
2018-04-27T18:06:43.410Z,15.80
2018-04-27T18:09:14.625Z,15.70
2018-04-27T18:11:46.653Z,15.70
2018-04-27T18:14:17.890Z,15.70
2018-04-27T18:16:49.173Z,15.60
2018-04-27T18:19:20.564Z,15.50
2018-04-27T18:21:51.783Z,15.50
2018-04-27T18:24:23.257Z,15.40
2018-04-27T18:26:54.538Z,15.30
2018-04-27T18:29:25.860Z,15.30
2018-04-27T18:31:57.054Z,15.20
2018-04-27T18:34:28.231Z,15.10
2018-04-27T18:36:59.698Z,15.10
2018-04-27T18:39:30.910Z,15.10
2018-04-27T18:42:02.298Z,15.00
2018-04-27T18:44:33.855Z,15.00
2018-04-27T18:47:05.107Z,14.90
2018-04-27T18:49:37.454Z,14.70
2018-04-27T18:52:08.664Z,14.70
2018-04-27T18:54:40.114Z,14.70
2018-04-27T18:57:12.051Z,14.50
2018-04-27T18:59:44.957Z,14.40
2018-04-27T19:02:16.183Z,14.40
2018-04-27T19:04:47.465Z,14.50
2018-04-27T19:07:18.691Z,14.40
2018-04-27T19:09:51.483Z,14.40
2018-04-27T19:12:22.849Z,14.40
2018-04-27T19:14:54.135Z,14.30
2018-04-27T19:17:25.378Z,14.20
2018-04-27T19:19:56.801Z,14.20
2018-04-27T19:22:28.097Z,14.20
2018-04-27T19:25:00.052Z,14.10
2018-04-27T19:27:31.378Z,14.10
2018-04-27T19:30:02.610Z,14.10
2018-04-27T19:32:33.993Z,14.00
2018-04-27T19:35:05.931Z,14.00
2018-04-27T19:37:37.267Z,14.00
2018-04-27T19:40:08.476Z,13.90
2018-04-27T19:42:40.049Z,13.80
2018-04-27T19:45:11.234Z,13.80
2018-04-27T19:47:43.229Z,13.70
2018-04-27T19:50:14.544Z,13.70
2018-04-27T19:52:46.651Z,13.50
2018-04-27T19:55:19.150Z,13.50
2018-04-27T19:57:50.371Z,13.50
2018-04-27T20:00:22.463Z,13.50
2018-04-27T20:02:53.819Z,13.50
2018-04-27T20:05:25.149Z,13.50
2018-04-27T20:07:56.330Z,13.40
2018-04-27T20:10:44.584Z,13.30
2018-04-27T20:13:16.538Z,13.30
2018-04-27T20:15:54.876Z,13.30
2018-04-27T20:18:28.279Z,13.30
2018-04-27T20:21:00.976Z,13.20
2018-04-27T20:23:33.372Z,13.20
2018-04-27T20:26:05.699Z,13.20
2018-04-27T20:28:39.806Z,13.20
2018-04-27T20:31:11.502Z,13.10
2018-04-27T20:33:42.716Z,13.10
2018-04-27T20:36:13.947Z,13.10
2018-04-27T20:38:45.217Z,13.10
2018-04-27T20:41:16.455Z,13.00
2018-04-27T20:43:47.690Z,12.90
2018-04-27T20:46:18.945Z,13.00
2018-04-27T20:48:51.110Z,12.90
2018-04-27T20:51:22.545Z,12.90
2018-04-27T20:54:01.755Z,12.90
2018-04-27T20:56:35.023Z,12.90
2018-04-27T20:59:07.146Z,12.70
2018-04-27T21:01:38.370Z,12.80
2018-04-27T21:04:09.625Z,12.70
2018-04-27T21:06:40.883Z,12.60
2018-04-27T21:09:12.106Z,12.70
2018-04-27T21:11:44.390Z,12.60
2018-04-27T21:14:15.952Z,12.60
2018-04-27T21:16:47.154Z,12.60
2018-04-27T21:19:18.513Z,12.50
2018-04-27T21:21:49.871Z,12.60
2018-04-27T21:24:21.383Z,12.50
2018-04-27T21:26:52.611Z,12.40
2018-04-27T21:29:25.934Z,12.40
2018-04-27T21:31:57.205Z,12.50
2018-04-27T21:34:28.455Z,12.50
2018-04-27T21:36:59.687Z,12.50
2018-04-27T21:39:31.830Z,12.60
2018-04-27T21:42:12.148Z,12.50
2018-04-27T21:44:46.295Z,12.60
2018-04-27T21:47:28.294Z,12.50
2018-04-27T21:50:02.202Z,12.50
2018-04-27T21:52:48.414Z,12.50
2018-04-27T21:55:19.679Z,12.60
2018-04-27T21:57:51.850Z,12.60
2018-04-27T22:00:24.888Z,12.60
2018-04-27T22:03:12.946Z,12.60
2018-04-27T22:05:46.351Z,12.60
2018-04-27T22:08:24.998Z,12.60
2018-04-27T22:10:56.213Z,12.70
2018-04-27T22:13:27.438Z,12.70
2018-04-27T22:15:58.668Z,12.70
2018-04-27T22:18:35.542Z,12.70
2018-04-27T22:21:07.096Z,12.70
2018-04-27T22:23:38.414Z,12.70
2018-04-27T22:26:16.083Z,12.70
2018-04-27T22:28:48.326Z,12.60
2018-04-27T22:31:21.544Z,12.70
2018-04-27T22:33:56.934Z,12.70
2018-04-27T22:36:32.157Z,12.70
2018-04-27T22:42:24.059Z,12.70
2018-04-27T22:44:56.289Z,12.70
2018-04-27T22:47:31.543Z,12.60
2018-04-27T22:50:03.503Z,12.70
2018-04-27T22:52:36.215Z,12.60
2018-04-27T22:55:08.497Z,12.60
2018-04-27T22:58:07.518Z,12.60
2018-04-27T23:00:45.485Z,12.60
2018-04-27T23:03:21.790Z,12.50
2018-04-27T23:05:53.836Z,12.50
2018-04-27T23:08:27.091Z,12.50
2018-04-27T23:11:00.994Z,12.50
2018-04-27T23:13:34.286Z,12.50
2018-04-27T23:16:05.493Z,12.50
2018-04-27T23:18:42.100Z,12.40
2018-04-27T23:21:23.169Z,12.40
2018-04-27T23:23:55.141Z,12.20
2018-04-27T23:26:26.380Z,12.20
2018-04-27T23:28:57.577Z,12.20
2018-04-27T23:31:29.553Z,12.00
2018-04-27T23:34:01.479Z,12.00
2018-04-27T23:36:32.894Z,11.90
2018-04-27T23:39:04.078Z,12.00
2018-04-27T23:41:35.350Z,11.90
2018-04-27T23:44:07.325Z,11.90
2018-04-27T23:46:39.285Z,11.80
2018-04-27T23:49:11.254Z,11.70
2018-04-27T23:51:42.418Z,11.60
2018-04-27T23:54:13.640Z,11.60
2018-04-27T23:56:48.574Z,11.60
2018-04-27T23:59:20.758Z,11.60
